Time;durP1;ratioP1;P1;durP2;ratioP2;P2;SDS_P1;SDS_P2;PMS_P1;PMS_P2;Temp;Humidity;BMP_temperature;BMP_pressure;BME280_temperature;BME280_humidity;BME280_pressure;Samples;Min_cycle;Max_cycle;Signal;HPM_P1;HPM_P2
2022/05/16 00:02:07;;;;;;;5.72;2.33;;;14.80;99.90;;;;;;5127501;28;20415;-79
2022/05/16 00:04:37;;;;;;;4.63;2.03;;;14.80;99.90;;;;;;5108939;28;20403;-79
2022/05/16 00:07:02;;;;;;;8.10;2.33;;;14.90;99.90;;;;;;5127599;28;20483;-79
2022/05/16 00:09:28;;;;;;;7.25;1.98;;;14.90;99.90;;;;;;5127281;28;20427;-79
2022/05/16 00:11:54;;;;;;;6.77;2.17;;;15.00;99.90;;;;;;5108970;28;20430;-79
2022/05/16 00:14:20;;;;;;;8.20;2.58;;;14.90;99.90;;;;;;5110197;28;20447;-79
2022/05/16 00:16:46;;;;;;;9.80;2.78;;;15.00;99.90;;;;;;5128428;28;20393;-78
2022/05/16 00:19:11;;;;;;;6.53;2.22;;;15.00;99.90;;;;;;5109934;28;20406;-79
2022/05/16 00:21:37;;;;;;;8.07;2.50;;;15.00;99.90;;;;;;5128212;28;20500;-79
2022/05/16 00:24:03;;;;;;;7.45;2.58;;;15.00;99.90;;;;;;5109943;28;20406;-79
2022/05/16 00:26:28;;;;;;;6.55;2.15;;;15.00;99.90;;;;;;5128202;28;21518;-78
2022/05/16 00:28:54;;;;;;;6.22;2.50;;;15.00;99.90;;;;;;5109539;28;20430;-79
2022/05/16 00:31:20;;;;;;;6.37;2.33;;;14.90;99.90;;;;;;5128347;28;20405;-79
2022/05/16 00:33:45;;;;;;;7.68;2.75;;;14.90;99.90;;;;;;5128283;28;20414;-79
2022/05/16 00:36:11;;;;;;;6.27;2.57;;;14.80;99.90;;;;;;5127891;28;20427;-79
2022/05/16 00:38:37;;;;;;;5.63;2.20;;;14.90;99.90;;;;;;5109884;28;20407;-79
2022/05/16 00:41:05;;;;;;;6.70;2.33;;;14.80;99.90;;;;;;5110111;28;20398;-79
2022/05/16 00:43:57;;;;;;;7.77;2.30;;;14.80;99.90;;;;;;5143967;27;20397;-79
2022/05/16 00:46:25;;;;;;;5.70;2.20;;;14.70;99.90;;;;;;5129792;27;20433;-79
2022/05/16 00:48:51;;;;;;;6.10;2.20;;;14.70;99.90;;;;;;5148993;27;20417;-79
2022/05/16 00:51:25;;;;;;;6.32;2.22;;;14.70;99.90;;;;;;5148540;27;20412;-79
2022/05/16 00:54:05;;;;;;;6.13;2.05;;;14.60;99.90;;;;;;5151755;27;20425;-79
2022/05/16 00:56:32;;;;;;;4.90;1.95;;;14.60;99.90;;;;;;5152244;27;20967;-79
2022/05/16 00:58:58;;;;;;;5.03;2.20;;;14.60;99.90;;;;;;5152473;27;20468;-79
2022/05/16 01:06:56;;;;;;;3.58;1.70;;;14.60;99.90;;;;;;5152173;27;20389;-79
2022/05/16 01:09:22;;;;;;;5.63;2.03;;;14.50;99.90;;;;;;5133432;27;20425;-78
2022/05/16 01:11:48;;;;;;;4.03;1.73;;;14.50;99.90;;;;;;5151921;27;20405;-79
2022/05/16 01:14:41;;;;;;;6.27;1.70;;;14.50;99.90;;;;;;5133691;27;20913;-79
2022/05/16 01:17:07;;;;;;;5.68;2.00;;;14.50;99.90;;;;;;5151788;27;20411;-79
2022/05/16 01:19:32;;;;;;;6.28;1.85;;;14.50;99.90;;;;;;5152003;27;20441;-79
2022/05/16 01:22:03;;;;;;;4.93;1.60;;;14.50;99.90;;;;;;5151413;27;20397;-79
2022/05/16 01:24:28;;;;;;;5.47;1.50;;;14.50;99.90;;;;;;5151961;27;20400;-79
2022/05/16 01:26:54;;;;;;;3.88;1.48;;;14.50;99.90;;;;;;5151669;27;20397;-79
2022/05/16 01:29:20;;;;;;;3.50;1.33;;;14.50;99.90;;;;;;5133120;27;20463;-79
2022/05/16 01:31:46;;;;;;;3.47;1.30;;;14.50;99.90;;;;;;5151723;27;20397;-79
2022/05/16 01:34:12;;;;;;;4.78;1.60;;;14.50;99.90;;;;;;5151341;27;20404;-79
2022/05/16 01:36:38;;;;;;;4.38;1.35;;;14.50;99.90;;;;;;5151537;27;20393;-79
2022/05/16 01:39:04;;;;;;;4.90;1.63;;;14.50;99.90;;;;;;5133334;27;20820;-79
2022/05/16 01:41:30;;;;;;;4.20;1.27;;;14.50;99.90;;;;;;5151781;27;20396;-79
2022/05/16 01:43:58;;;;;;;3.93;1.20;;;14.50;99.90;;;;;;5132295;27;20401;-79
2022/05/16 01:46:34;;;;;;;6.32;1.50;;;14.40;99.90;;;;;;5129934;27;20448;-79
2022/05/16 01:49:00;;;;;;;5.10;1.40;;;14.40;99.90;;;;;;5111548;27;20443;-79
2022/05/16 01:51:25;;;;;;;3.60;1.40;;;14.40;99.90;;;;;;5130890;27;20403;-79
2022/05/16 01:53:51;;;;;;;5.00;1.50;;;14.40;99.90;;;;;;5130707;27;20387;-79
2022/05/16 01:56:17;;;;;;;4.85;1.73;;;14.40;99.90;;;;;;5130130;27;20402;-78
2022/05/16 01:58:44;;;;;;;3.25;1.38;;;14.40;99.90;;;;;;5130483;27;20395;-79
2022/05/16 02:01:10;;;;;;;4.55;1.50;;;14.30;99.90;;;;;;5095571;27;20410;-79
2022/05/16 02:03:41;;;;;;;4.25;1.38;;;14.30;99.90;;;;;;5130545;27;20829;-79
2022/05/16 02:06:07;;;;;;;5.78;1.50;;;14.30;99.90;;;;;;5130139;27;20409;-79
2022/05/16 02:08:33;;;;;;;4.67;1.70;;;14.30;99.90;;;;;;5129852;27;20405;-79
2022/05/16 02:11:01;;;;;;;3.38;1.25;;;14.30;99.90;;;;;;5130305;27;20477;-79
2022/05/16 02:13:28;;;;;;;5.43;1.55;;;14.20;99.90;;;;;;5130034;27;20433;-79
2022/05/16 02:15:53;;;;;;;5.03;1.50;;;14.20;99.90;;;;;;5112212;27;20977;-78
2022/05/16 02:18:19;;;;;;;3.20;1.50;;;14.20;99.90;;;;;;5111507;27;20399;-79
2022/05/16 02:20:45;;;;;;;4.30;1.58;;;14.20;99.90;;;;;;5130006;27;20460;-79
2022/05/16 02:25:57;;;;;;;3.70;1.42;;;14.20;99.90;;;;;;5130002;27;20398;-79
2022/05/16 02:28:23;;;;;;;3.50;1.40;;;14.10;99.90;;;;;;5129882;27;20814;-79
2022/05/16 02:30:50;;;;;;;4.28;1.48;;;14.10;99.90;;;;;;5129400;27;20741;-79
2022/05/16 02:33:16;;;;;;;5.22;1.60;;;14.10;99.90;;;;;;5094369;27;20399;-79
2022/05/16 02:35:43;;;;;;;5.22;1.60;;;14.10;99.90;;;;;;5129513;27;20402;-79
2022/05/16 02:38:10;;;;;;;4.53;1.50;;;14.10;99.90;;;;;;5129686;27;20394;-79
2022/05/16 02:40:36;;;;;;;5.35;1.63;;;14.00;99.90;;;;;;5129794;27;21428;-79
2022/05/16 02:43:03;;;;;;;4.45;1.45;;;14.00;99.90;;;;;;5116701;27;20410;-78
2022/05/16 02:45:30;;;;;;;5.90;1.60;;;14.00;99.90;;;;;;5111112;27;20397;-79
2022/05/16 02:47:56;;;;;;;5.00;1.50;;;13.90;99.90;;;;;;5109560;27;20426;-78
2022/05/16 02:50:23;;;;;;;3.72;1.42;;;13.90;99.90;;;;;;5131496;27;20421;-79
2022/05/16 02:52:52;;;;;;;3.38;1.30;;;13.90;99.90;;;;;;5129389;27;20725;-79
2022/05/16 02:55:18;;;;;;;3.88;1.38;;;13.90;99.90;;;;;;5129454;27;20394;-79
2022/05/16 02:57:44;;;;;;;6.00;1.60;;;13.90;99.90;;;;;;5113615;27;20471;-79
2022/05/16 03:00:12;;;;;;;5.07;1.80;;;13.90;99.90;;;;;;5144764;27;20823;-79
2022/05/16 03:02:39;;;;;;;4.55;1.88;;;13.80;99.90;;;;;;5113020;27;20402;-78
2022/05/16 03:05:06;;;;;;;5.72;1.70;;;13.80;99.90;;;;;;5131447;27;20398;-79
2022/05/16 03:07:32;;;;;;;6.88;1.77;;;13.80;99.90;;;;;;5149939;27;20396;-79
2022/05/16 03:09:58;;;;;;;6.03;1.45;;;13.80;99.90;;;;;;5150056;27;20428;-79
2022/05/16 03:12:24;;;;;;;4.50;1.70;;;13.80;99.90;;;;;;5149451;27;20401;-79
2022/05/16 03:14:49;;;;;;;4.45;1.42;;;13.80;99.90;;;;;;5117212;27;20486;-79
2022/05/16 03:17:15;;;;;;;4.40;1.63;;;13.80;99.90;;;;;;5128827;27;20493;-79
2022/05/16 03:19:41;;;;;;;5.10;1.50;;;13.80;99.90;;;;;;5129352;27;20421;-79
2022/05/16 03:22:07;;;;;;;6.15;1.58;;;13.70;99.90;;;;;;5128685;27;20474;-78
2022/05/16 03:24:33;;;;;;;5.47;1.63;;;13.80;99.90;;;;;;5128954;27;20828;-79
2022/05/16 03:26:59;;;;;;;4.78;1.55;;;13.70;99.90;;;;;;5128763;27;20755;-79
2022/05/16 03:29:25;;;;;;;4.80;1.63;;;13.70;99.90;;;;;;5128461;27;20460;-79
2022/05/16 03:31:50;;;;;;;6.37;1.80;;;13.70;99.90;;;;;;5141200;27;20409;-79
2022/05/16 03:34:16;;;;;;;4.32;1.40;;;13.70;99.90;;;;;;5130987;27;20408;-79
2022/05/16 03:36:42;;;;;;;6.00;1.60;;;13.70;99.90;;;;;;5139183;27;20431;-79
2022/05/16 03:41:53;;;;;;;4.72;1.70;;;13.70;99.90;;;;;;5139948;27;20401;-79
2022/05/16 03:44:20;;;;;;;4.38;1.30;;;13.60;99.90;;;;;;5149394;27;20392;-79
2022/05/16 03:46:46;;;;;;;4.70;1.60;;;13.60;99.90;;;;;;5132669;27;20403;-79
2022/05/16 03:49:12;;;;;;;5.45;1.63;;;13.60;99.90;;;;;;5128429;28;20422;-78
2022/05/16 03:51:38;;;;;;;4.23;1.53;;;13.60;99.90;;;;;;5128559;28;20395;-79
2022/05/16 03:54:04;;;;;;;3.63;1.60;;;13.50;99.90;;;;;;5135042;27;20396;-79
2022/05/16 03:56:30;;;;;;;4.07;1.67;;;13.50;99.90;;;;;;5149339;27;20421;-80
2022/05/16 03:58:57;;;;;;;4.30;1.30;;;13.50;99.90;;;;;;5149265;27;20408;-79
2022/05/16 04:01:23;;;;;;;5.50;1.60;;;13.50;99.90;;;;;;5130959;27;20473;-79
2022/05/16 04:03:49;;;;;;;4.43;1.50;;;13.50;99.90;;;;;;5148903;27;20464;-79
2022/05/16 04:06:15;;;;;;;4.87;1.80;;;13.50;99.90;;;;;;5149183;27;20902;-79
2022/05/16 04:08:42;;;;;;;3.92;1.48;;;13.40;99.90;;;;;;5148954;27;20473;-78
2022/05/16 04:11:08;;;;;;;4.00;1.48;;;13.40;99.90;;;;;;5142725;27;20822;-79
2022/05/16 04:13:34;;;;;;;4.23;1.50;;;13.50;99.90;;;;;;5109743;27;20402;-79
2022/05/16 04:16:00;;;;;;;4.47;1.80;;;13.40;99.90;;;;;;5131522;27;20759;-79
2022/05/16 04:18:26;;;;;;;5.13;1.63;;;13.40;99.90;;;;;;5142928;27;20394;-78
2022/05/16 04:20:52;;;;;;;3.72;1.70;;;13.40;99.90;;;;;;5128526;28;20450;-79
2022/05/16 04:23:18;;;;;;;5.33;1.87;;;13.50;99.90;;;;;;5139232;27;20388;-79
2022/05/16 04:25:44;;;;;;;5.32;1.95;;;13.50;99.90;;;;;;5130324;27;20484;-79
2022/05/16 04:28:11;;;;;;;4.50;1.90;;;13.40;99.90;;;;;;5150792;27;20523;-79
2022/05/16 04:30:39;;;;;;;4.15;1.58;;;13.50;99.90;;;;;;5152340;27;20424;-79
2022/05/16 04:33:06;;;;;;;6.63;2.05;;;13.50;99.90;;;;;;5131803;27;20814;-79
2022/05/16 04:35:32;;;;;;;6.43;1.80;;;13.50;99.90;;;;;;5131920;27;20395;-79
2022/05/16 04:37:57;;;;;;;5.60;1.87;;;13.60;99.90;;;;;;5132080;27;20418;-79
2022/05/16 04:40:24;;;;;;;4.10;1.83;;;13.60;99.90;;;;;;5096680;27;20824;-79
2022/05/16 04:42:50;;;;;;;5.07;1.70;;;13.60;99.90;;;;;;5114079;27;20573;-79
2022/05/16 04:45:23;;;;;;;5.73;1.90;;;13.70;99.90;;;;;;5131625;27;20394;-79
2022/05/16 04:47:55;;;;;;;5.63;1.67;;;13.70;99.90;;;;;;5113882;27;20402;-78
2022/05/16 04:50:27;;;;;;;5.07;1.87;;;13.70;99.90;;;;;;5152429;27;20466;-79
2022/05/16 04:52:53;;;;;;;4.50;1.70;;;13.70;99.90;;;;;;5152412;27;20445;-79
2022/05/16 04:55:20;;;;;;;4.22;1.73;;;13.70;99.90;;;;;;5152457;27;20401;-79
2022/05/16 04:57:46;;;;;;;5.78;1.73;;;13.80;99.90;;;;;;5152610;27;20754;-79
2022/05/16 05:00:14;;;;;;;4.70;1.90;;;13.80;99.90;;;;;;5152238;27;20381;-79
2022/05/16 05:02:40;;;;;;;4.97;1.70;;;13.80;99.90;;;;;;5133596;27;20440;-79
2022/05/16 05:05:07;;;;;;;5.38;2.05;;;13.80;99.90;;;;;;5152117;27;20747;-79
2022/05/16 05:07:33;;;;;;;5.72;1.98;;;13.90;99.90;;;;;;5133863;27;20408;-79
2022/05/16 05:15:27;;;;;;;6.67;2.27;;;14.00;99.90;;;;;;5152172;27;20403;-79
2022/05/16 05:17:53;;;;;;;5.05;1.90;;;14.00;99.90;;;;;;5133430;27;20446;-79
2022/05/16 05:20:19;;;;;;;6.10;2.30;;;14.10;99.90;;;;;;5133097;27;20739;-79
2022/05/16 05:22:46;;;;;;;3.97;1.90;;;14.10;99.90;;;;;;5143195;27;20509;-79
2022/05/16 05:25:15;;;;;;;5.47;1.80;;;14.00;99.90;;;;;;5130107;27;20400;-79
2022/05/16 05:27:42;;;;;;;6.50;2.07;;;14.10;99.90;;;;;;5112165;27;20399;-78
2022/05/16 05:30:10;;;;;;;5.03;2.00;;;14.10;99.90;;;;;;5130628;27;20410;-79
2022/05/16 05:32:36;;;;;;;5.45;1.98;;;14.10;99.90;;;;;;5113042;27;20930;-79
2022/05/16 05:35:04;;;;;;;5.70;2.15;;;14.20;99.90;;;;;;5130862;27;20391;-79
2022/05/16 05:37:30;;;;;;;7.40;1.95;;;14.20;99.90;;;;;;5112457;27;20453;-79
2022/05/16 05:40:00;;;;;;;6.72;2.10;;;14.20;99.90;;;;;;5130194;27;20798;-80
2022/05/16 05:42:26;;;;;;;5.25;1.95;;;14.30;99.90;;;;;;5130638;27;20907;-79
2022/05/16 05:44:53;;;;;;;5.53;1.98;;;14.30;99.90;;;;;;5130580;27;20402;-78
2022/05/16 05:47:19;;;;;;;7.13;2.28;;;14.30;99.90;;;;;;5130937;27;20399;-77
2022/05/16 05:49:45;;;;;;;6.05;1.80;;;14.40;99.90;;;;;;5141140;27;20425;-78
2022/05/16 05:52:10;;;;;;;4.50;1.70;;;14.40;99.90;;;;;;5138888;27;21207;-79
2022/05/16 05:54:36;;;;;;;5.87;1.93;;;14.40;99.90;;;;;;5139638;27;20395;-78
2022/05/16 05:57:02;;;;;;;5.37;1.90;;;14.50;99.90;;;;;;5141266;27;20396;-79
2022/05/16 05:59:28;;;;;;;6.03;1.73;;;14.50;99.90;;;;;;5150967;27;20478;-78
2022/05/16 06:01:54;;;;;;;6.40;1.90;;;14.50;99.90;;;;;;5134915;27;20397;-80
2022/05/16 06:04:20;;;;;;;5.83;1.80;;;14.60;99.90;;;;;;5130101;27;20399;-79
2022/05/16 06:06:47;;;;;;;4.87;1.60;;;14.70;99.90;;;;;;5130054;27;20845;-79
2022/05/16 06:09:13;;;;;;;5.55;1.67;;;14.70;99.90;;;;;;5135242;27;20420;-79
2022/05/16 06:11:39;;;;;;;5.20;1.80;;;14.80;99.90;;;;;;5150767;27;20419;-79
2022/05/16 06:14:05;;;;;;;4.90;1.80;;;14.90;99.90;;;;;;5150825;27;21258;-80
2022/05/16 06:16:31;;;;;;;6.90;2.10;;;15.00;99.90;;;;;;5150594;27;20489;-79
2022/05/16 06:18:56;;;;;;;3.92;1.80;;;15.10;99.90;;;;;;5150508;27;20399;-80
2022/05/16 06:21:23;;;;;;;6.03;1.95;;;15.20;99.90;;;;;;5150638;27;20788;-79
2022/05/16 06:23:48;;;;;;;6.55;1.92;;;15.40;99.90;;;;;;5132424;27;20762;-79
2022/05/16 06:26:14;;;;;;;5.10;1.80;;;15.50;99.90;;;;;;5145344;27;20392;-80
2022/05/16 06:28:40;;;;;;;6.43;2.13;;;15.60;99.90;;;;;;5129831;27;20395;-79
2022/05/16 06:31:06;;;;;;;5.10;1.80;;;15.60;99.90;;;;;;5129553;27;20810;-80
2022/05/16 06:33:33;;;;;;;5.57;2.28;;;15.60;99.90;;;;;;5129714;27;20415;-79
2022/05/16 06:36:00;;;;;;;6.15;1.90;;;15.60;99.90;;;;;;5129218;27;20430;-79
2022/05/16 06:38:29;;;;;;;6.82;2.10;;;15.60;99.90;;;;;;5129238;27;20434;-80
2022/05/16 06:40:56;;;;;;;6.25;2.08;;;15.60;99.90;;;;;;5129350;27;20407;-79
2022/05/16 06:43:24;;;;;;;8.50;1.87;;;15.60;99.90;;;;;;5111216;27;20756;-79
2022/05/16 06:45:50;;;;;;;10.55;2.38;;;15.70;99.90;;;;;;5110683;27;20522;-79
2022/05/16 06:48:17;;;;;;;6.10;2.00;;;15.70;99.90;;;;;;5129504;27;20402;-79
2022/05/16 06:50:44;;;;;;;6.72;2.20;;;15.70;99.90;;;;;;5128597;27;20834;-79
2022/05/16 06:53:15;;;;;;;7.90;2.05;;;15.80;99.90;;;;;;5129031;27;20403;-80
2022/05/16 06:55:41;;;;;;;8.07;2.50;;;15.80;99.90;;;;;;5129657;27;20406;-79
2022/05/16 06:58:07;;;;;;;5.80;2.05;;;15.80;99.90;;;;;;5129522;27;20399;-79
2022/05/16 07:00:33;;;;;;;8.40;2.15;;;15.90;99.90;;;;;;5135806;27;20427;-79
2022/05/16 07:02:59;;;;;;;7.37;2.10;;;15.90;99.90;;;;;;5131735;27;20468;-79
2022/05/16 07:05:24;;;;;;;6.60;2.00;;;15.90;99.90;;;;;;5131327;27;20890;-80
2022/05/16 07:07:51;;;;;;;5.57;1.93;;;16.00;99.90;;;;;;5131479;27;20434;-80
2022/05/16 07:10:16;;;;;;;8.18;2.10;;;16.10;99.90;;;;;;5131285;27;20894;-80
2022/05/16 07:12:42;;;;;;;9.77;2.40;;;16.10;99.90;;;;;;5149853;27;20475;-80
2022/05/16 07:15:08;;;;;;;6.38;2.35;;;16.20;99.90;;;;;;5149959;27;20488;-80
2022/05/16 07:17:34;;;;;;;8.13;2.20;;;16.30;99.90;;;;;;5149655;27;20445;-79
2022/05/16 07:19:59;;;;;;;8.43;2.40;;;16.40;99.90;;;;;;5130906;27;20792;-80
2022/05/16 07:22:25;;;;;;;7.22;2.10;;;16.50;99.00;;;;;;5149791;27;20393;-80
2022/05/16 07:24:55;;;;;;;6.97;2.10;;;16.60;99.30;;;;;;5149826;27;20425;-79
2022/05/16 07:30:06;;;;;;;7.15;2.17;;;16.80;99.00;;;;;;5130946;27;20855;-80
2022/05/16 07:32:37;;;;;;;8.65;2.00;;;16.90;99.00;;;;;;5149147;27;20408;-79
2022/05/16 07:35:05;;;;;;;7.20;2.03;;;17.00;99.10;;;;;;5113994;27;20465;-80
2022/05/16 07:37:31;;;;;;;5.63;1.90;;;17.20;99.20;;;;;;5131011;27;20436;-80
2022/05/16 07:39:58;;;;;;;7.10;2.38;;;17.30;99.10;;;;;;5149585;27;20430;-80
2022/05/16 07:42:24;;;;;;;6.47;1.90;;;17.50;99.50;;;;;;5130481;27;20405;-80
2022/05/16 07:44:50;;;;;;;8.52;2.45;;;17.60;99.50;;;;;;5149649;27;20401;-80
2022/05/16 07:47:16;;;;;;;5.88;2.15;;;17.70;99.10;;;;;;5149256;27;20393;-80
2022/05/16 07:49:42;;;;;;;6.32;2.10;;;17.90;99.00;;;;;;5149497;27;20424;-80
2022/05/16 07:52:08;;;;;;;6.95;2.10;;;18.00;98.70;;;;;;5149394;27;20401;-79
2022/05/16 07:54:34;;;;;;;7.95;2.30;;;18.00;98.00;;;;;;5130694;27;20480;-79
2022/05/16 07:57:02;;;;;;;8.20;2.20;;;18.00;98.30;;;;;;5149329;27;20803;-80
2022/05/16 07:59:28;;;;;;;6.60;2.33;;;18.10;98.00;;;;;;5149126;27;20437;-79
2022/05/16 08:01:54;;;;;;;6.03;2.15;;;18.20;97.40;;;;;;5132614;27;20450;-79
2022/05/16 08:04:19;;;;;;;7.80;2.30;;;18.30;97.80;;;;;;5132718;27;20533;-79
2022/05/16 08:06:45;;;;;;;6.63;2.30;;;18.40;97.50;;;;;;5113915;27;20958;-79
2022/05/16 08:11:55;;;;;;;8.55;2.22;;;18.60;97.20;;;;;;5114392;27;20403;-80
2022/05/16 08:14:21;;;;;;;7.33;2.13;;;18.70;97.40;;;;;;5114399;27;20401;-79
2022/05/16 08:16:47;;;;;;;7.70;2.00;;;18.90;97.00;;;;;;5132511;27;20406;-79
2022/05/16 08:19:13;;;;;;;7.57;2.25;;;19.00;96.50;;;;;;5132319;27;20394;-80
2022/05/16 08:21:41;;;;;;;7.13;2.00;;;19.10;96.50;;;;;;5114214;27;20407;-79
2022/05/16 08:24:09;;;;;;;7.35;1.90;;;19.20;95.80;;;;;;5113952;27;20431;-80
2022/05/16 08:26:36;;;;;;;6.88;2.20;;;19.30;96.20;;;;;;5132242;27;20389;-80
2022/05/16 08:29:02;;;;;;;10.98;2.15;;;19.40;95.60;;;;;;5131944;27;20426;-80
2022/05/16 08:31:28;;;;;;;8.05;2.40;;;19.50;94.20;;;;;;5113825;27;20465;-79
2022/05/16 08:33:56;;;;;;;7.13;2.20;;;19.60;94.00;;;;;;5131876;27;20405;-79
2022/05/16 08:41:57;;;;;;;7.13;2.03;;;19.80;94.00;;;;;;5132216;27;20809;-79
2022/05/16 08:44:29;;;;;;;9.55;2.08;;;19.90;94.30;;;;;;5130868;27;20453;-80
2022/05/16 08:47:16;;;;;;;5.63;2.15;;;20.10;93.80;;;;;;5131807;27;20411;-80
2022/05/16 08:49:51;;;;;;;8.20;2.20;;;20.10;92.60;;;;;;5113761;27;20483;-80
2022/05/16 08:52:36;;;;;;;6.80;2.43;;;20.20;93.00;;;;;;5113222;27;20406;-79
2022/05/16 08:55:29;;;;;;;7.38;2.10;;;20.30;92.90;;;;;;5131663;27;20771;-79
2022/05/16 08:58:09;;;;;;;11.87;2.50;;;20.40;92.80;;;;;;5131698;27;20413;-79
2022/05/16 09:00:52;;;;;;;6.18;1.90;;;20.60;92.40;;;;;;5138473;27;20405;-79
2022/05/16 09:03:23;;;;;;;6.27;2.10;;;20.70;92.80;;;;;;5152442;27;20393;-80
2022/05/16 09:05:55;;;;;;;6.45;2.28;;;20.70;91.80;;;;;;5151763;27;20392;-79
2022/05/16 09:08:38;;;;;;;5.53;2.13;;;20.80;92.40;;;;;;5133532;27;20488;-79
2022/05/16 09:11:18;;;;;;;7.22;2.30;;;21.00;92.00;;;;;;5152146;27;20417;-80
2022/05/16 09:13:52;;;;;;;7.35;2.22;;;21.10;90.80;;;;;;5151504;27;20393;-79
2022/05/16 09:16:40;;;;;;;7.30;2.07;;;21.30;90.90;;;;;;5133161;27;20925;-79
2022/05/16 09:19:20;;;;;;;11.02;2.38;;;21.40;90.40;;;;;;5152015;27;21119;-79
2022/05/16 09:22:09;;;;;;;7.13;1.93;;;21.60;90.10;;;;;;5151868;27;20929;-79
2022/05/16 09:24:50;;;;;;;7.75;2.10;;;21.70;89.60;;;;;;5132950;27;20416;-80
2022/05/16 09:30:16;;;;;;;6.68;1.90;;;22.10;89.00;;;;;;5109194;28;20440;-79
2022/05/16 09:32:47;;;;;;;7.50;2.10;;;22.20;87.40;;;;;;5110500;28;20404;-80
2022/05/16 09:35:50;;;;;;;9.23;2.40;;;22.30;87.30;;;;;;5110120;28;20397;-80
2022/05/16 09:38:18;;;;;;;6.13;1.90;;;22.60;86.70;;;;;;5086399;28;20412;-80
2022/05/16 09:40:59;;;;;;;6.38;1.88;;;22.80;84.90;;;;;;5110393;28;20422;-80
2022/05/16 09:43:29;;;;;;;9.00;2.17;;;22.90;83.30;;;;;;5110228;28;20412;-80
2022/05/16 09:45:59;;;;;;;6.70;2.08;;;23.00;81.40;;;;;;5110276;28;20504;-80
2022/05/16 09:48:25;;;;;;;7.28;1.98;;;23.00;81.80;;;;;;5108990;28;21014;-80
2022/05/16 09:50:59;;;;;;;7.28;2.00;;;23.10;81.80;;;;;;5108608;28;20428;-79
2022/05/16 09:53:43;;;;;;;7.25;1.90;;;23.10;80.00;;;;;;5109936;28;20470;-80
2022/05/16 09:56:57;;;;;;;13.55;1.98;;;23.10;80.00;;;;;;5110175;28;20450;-79
2022/05/16 09:59:47;;;;;;;7.80;2.00;;;23.10;79.90;;;;;;5091513;28;20495;-80
2022/05/16 10:02:36;;;;;;;6.95;2.20;;;23.10;80.90;;;;;;5089462;28;20913;-80
2022/05/16 10:05:26;;;;;;;6.05;2.17;;;23.10;80.50;;;;;;5087913;28;20498;-80
2022/05/16 10:08:00;;;;;;;7.47;2.28;;;23.10;80.30;;;;;;5089453;28;20409;-80
2022/05/16 10:10:34;;;;;;;7.37;2.13;;;23.30;79.40;;;;;;5088302;28;20465;-80
2022/05/16 10:13:00;;;;;;;6.85;2.53;;;23.50;78.10;;;;;;5088041;28;20459;-80
2022/05/16 10:15:26;;;;;;;8.43;2.20;;;23.80;79.40;;;;;;5089582;28;20756;-80
2022/05/16 10:17:55;;;;;;;9.07;2.30;;;24.10;77.70;;;;;;5088641;28;20516;-80
2022/05/16 10:20:32;;;;;;;7.65;2.28;;;24.40;75.50;;;;;;5089055;28;20409;-80
2022/05/16 10:23:06;;;;;;;6.13;1.70;;;24.70;75.30;;;;;;5088021;28;20409;-80
2022/05/16 10:25:45;;;;;;;6.38;1.90;;;24.90;74.20;;;;;;5088569;28;20454;-80
2022/05/16 10:28:29;;;;;;;6.22;1.92;;;25.20;71.10;;;;;;5099364;27;20411;-80
2022/05/16 10:33:42;;;;;;;6.72;1.83;;;26.00;71.00;;;;;;5129552;27;20417;-80
2022/05/16 10:36:20;;;;;;;7.35;2.05;;;26.30;69.00;;;;;;5130043;27;20443;-81
2022/05/16 10:38:54;;;;;;;7.07;1.98;;;26.60;68.40;;;;;;5111786;27;20402;-80
2022/05/16 10:41:26;;;;;;;8.35;1.80;;;26.60;68.10;;;;;;5129627;27;20407;-81
2022/05/16 10:44:27;;;;;;;9.30;1.90;;;26.80;67.20;;;;;;5129349;27;20883;-81
2022/05/16 10:47:03;;;;;;;6.67;1.87;;;27.00;66.30;;;;;;5129483;27;20426;-81
2022/05/16 10:49:38;;;;;;;6.47;2.13;;;27.30;65.90;;;;;;5129358;27;20471;-80
2022/05/16 10:52:21;;;;;;;7.72;2.10;;;27.60;67.80;;;;;;5128886;27;20395;-81
2022/05/16 10:54:47;;;;;;;6.07;1.80;;;27.80;63.90;;;;;;5129641;27;20449;-80
2022/05/16 10:57:24;;;;;;;8.07;2.03;;;27.90;63.70;;;;;;5129314;27;20880;-81
2022/05/16 11:00:19;;;;;;;5.85;1.80;;;28.20;61.00;;;;;;5129751;27;20403;-80
2022/05/16 11:03:10;;;;;;;8.02;2.13;;;28.60;62.30;;;;;;5149361;27;20457;-80
2022/05/16 11:05:54;;;;;;;7.22;1.83;;;28.90;60.90;;;;;;5131414;27;20763;-81
2022/05/16 11:08:29;;;;;;;6.97;1.90;;;29.00;58.80;;;;;;5131146;27;20413;-80
2022/05/16 11:11:20;;;;;;;8.73;2.22;;;28.90;56.90;;;;;;5149751;27;20790;-80
2022/05/16 11:13:56;;;;;;;6.55;2.20;;;28.60;57.80;;;;;;5150011;27;20457;-81
2022/05/16 11:16:28;;;;;;;7.80;1.90;;;28.40;59.40;;;;;;5149503;27;20392;-80
2022/05/16 11:19:04;;;;;;;7.63;1.83;;;28.40;58.60;;;;;;5149548;27;20393;-80
2022/05/16 11:21:35;;;;;;;9.30;2.40;;;28.40;58.90;;;;;;5131202;27;20451;-81
2022/05/16 11:24:13;;;;;;;7.83;1.93;;;28.70;58.20;;;;;;5149577;27;20920;-81
2022/05/16 11:27:09;;;;;;;7.87;1.93;;;28.70;57.90;;;;;;5149621;27;20401;-80
2022/05/16 11:29:59;;;;;;;6.55;2.03;;;28.50;57.70;;;;;;5130225;27;20425;-81
2022/05/16 11:32:33;;;;;;;7.80;2.00;;;28.40;57.20;;;;;;5149598;27;20454;-80
2022/05/16 11:35:08;;;;;;;9.40;2.10;;;28.40;57.30;;;;;;5130942;27;20413;-80
2022/05/16 11:38:04;;;;;;;8.43;2.30;;;28.40;56.50;;;;;;5130353;27;21081;-81
2022/05/16 11:41:05;;;;;;;11.48;2.95;;;28.40;55.60;;;;;;5149559;27;20401;-81
2022/05/16 11:43:36;;;;;;;7.82;2.03;;;28.70;59.00;;;;;;5114150;27;20928;-81
2022/05/16 11:46:20;;;;;;;8.25;2.10;;;28.90;58.00;;;;;;5131185;27;20401;-81
2022/05/16 11:49:04;;;;;;;7.03;2.20;;;29.00;57.80;;;;;;5148937;27;20905;-81
2022/05/16 11:52:00;;;;;;;6.40;1.75;;;29.20;57.80;;;;;;5149283;27;20920;-81
2022/05/16 11:54:30;;;;;;;7.47;1.98;;;29.40;58.60;;;;;;5149330;27;20938;-81
2022/05/16 12:02:29;;;;;;;7.20;2.10;;;29.00;53.70;;;;;;5109653;28;20967;-80
2022/05/16 12:05:08;;;;;;;7.28;2.08;;;28.60;54.50;;;;;;5110324;28;20501;-80
2022/05/16 12:07:34;;;;;;;7.20;1.98;;;28.30;54.70;;;;;;5110079;28;20402;-81
2022/05/16 12:10:15;;;;;;;10.40;1.90;;;28.10;54.60;;;;;;5128521;28;20433;-80
2022/05/16 12:12:47;;;;;;;8.00;2.00;;;27.70;55.50;;;;;;5128245;28;20978;-80
2022/05/16 12:15:29;;;;;;;12.32;2.20;;;27.50;57.40;;;;;;5134456;27;20411;-80
2022/05/16 12:18:02;;;;;;;8.60;2.00;;;27.30;58.00;;;;;;5132797;27;20432;-80
2022/05/16 12:20:35;;;;;;;8.50;1.73;;;27.20;58.70;;;;;;5130139;27;20409;-80
2022/05/16 12:23:02;;;;;;;10.55;2.20;;;27.10;57.10;;;;;;5137079;27;20474;-80
2022/05/16 12:25:32;;;;;;;6.40;2.00;;;26.90;56.60;;;;;;5128346;27;20386;-80
2022/05/16 12:28:23;;;;;;;6.72;1.90;;;26.80;56.70;;;;;;5109810;27;22040;-80
2022/05/16 12:30:56;;;;;;;6.17;1.90;;;26.70;57.50;;;;;;5133157;27;20416;-80
2022/05/16 12:33:40;;;;;;;8.37;1.87;;;26.60;58.50;;;;;;5130634;27;20489;-81
2022/05/16 12:36:12;;;;;;;6.43;1.83;;;26.60;58.80;;;;;;5148937;27;20977;-80
2022/05/16 12:38:38;;;;;;;5.75;1.73;;;26.60;59.40;;;;;;5148761;27;20389;-80
2022/05/16 12:41:12;;;;;;;9.30;2.00;;;26.70;59.50;;;;;;5113239;27;20955;-80
2022/05/16 12:44:00;;;;;;;6.63;1.92;;;26.70;57.40;;;;;;5149077;27;20400;-81
2022/05/16 12:46:28;;;;;;;7.43;1.70;;;26.80;58.90;;;;;;5130315;27;20397;-80
2022/05/16 12:49:32;;;;;;;6.27;1.70;;;26.80;59.10;;;;;;5100200;27;20452;-80
2022/05/16 12:52:05;;;;;;;6.75;1.83;;;26.80;59.10;;;;;;5112873;27;20472;-80
2022/05/16 12:54:50;;;;;;;9.35;1.90;;;26.80;59.70;;;;;;5131869;27;20473;-81
2022/05/16 12:57:29;;;;;;;6.78;1.85;;;26.80;58.40;;;;;;5131570;27;20452;-80
2022/05/16 13:00:08;;;;;;;6.93;1.80;;;26.70;59.50;;;;;;5113031;27;20908;-80
2022/05/16 13:03:06;;;;;;;5.00;1.70;;;26.60;59.20;;;;;;5113354;27;20403;-80
2022/05/16 13:06:03;;;;;;;5.63;1.70;;;26.60;60.20;;;;;;5131463;27;20394;-80
2022/05/16 13:08:37;;;;;;;5.95;2.05;;;26.60;59.80;;;;;;5110562;27;20407;-81
2022/05/16 13:11:06;;;;;;;6.05;1.75;;;26.50;60.70;;;;;;5112720;27;20988;-80
2022/05/16 13:13:43;;;;;;;6.90;1.70;;;26.50;60.70;;;;;;5112941;27;20445;-80
2022/05/16 13:16:15;;;;;;;5.63;1.63;;;26.60;61.90;;;;;;5131506;27;20874;-80
2022/05/16 13:18:51;;;;;;;5.50;1.83;;;26.70;60.60;;;;;;5131678;27;20729;-81
2022/05/16 13:21:20;;;;;;;6.35;1.83;;;26.70;60.10;;;;;;5112626;27;20787;-80
2022/05/16 13:23:46;;;;;;;6.13;1.52;;;26.80;60.20;;;;;;5151621;27;20438;-80
2022/05/16 13:31:48;;;;;;;5.88;1.60;;;26.80;60.40;;;;;;5151892;27;20400;-80
2022/05/16 13:34:26;;;;;;;6.20;1.95;;;26.70;59.50;;;;;;5115375;27;20408;-80
2022/05/16 13:36:52;;;;;;;8.82;2.10;;;26.60;60.30;;;;;;5151781;27;20381;-80
2022/05/16 13:39:19;;;;;;;5.72;2.30;;;26.50;61.40;;;;;;5115882;27;20913;-81
2022/05/16 13:41:54;;;;;;;4.65;1.80;;;26.50;61.60;;;;;;5151681;27;20415;-80
2022/05/16 13:44:20;;;;;;;6.88;2.15;;;26.40;61.50;;;;;;5132469;27;20405;-78
2022/05/16 13:46:46;;;;;;;6.33;2.07;;;26.30;62.90;;;;;;5151852;27;20408;-80
2022/05/16 13:49:12;;;;;;;7.22;2.00;;;26.30;62.70;;;;;;5151252;27;20467;-80